sensor_id;sensor_type;location;lat;lon;timestamp;P1;P2;P0
73305;PMS5003;61530;51.158;0.880;2022-09-27T00:00:51;15;15;14
73305;PMS5003;61530;51.158;0.880;2022-09-27T00:01:51;19;19;19
73305;PMS5003;61530;51.158;0.880;2022-09-27T00:02:57;22;22;21
73305;PMS5003;61530;51.158;0.880;2022-09-27T00:04:03;24;24;23
73305;PMS5003;61530;51.158;0.880;2022-09-27T00:05:03;23;23;22
73305;PMS5003;61530;51.158;0.880;2022-09-27T00:06:04;11;10;10
73305;PMS5003;61530;51.158;0.880;2022-09-27T00:07:09;4;2;1
73305;PMS5003;61530;51.158;0.880;2022-09-27T00:08:15;1;1;0
73305;PMS5003;61530;51.158;0.880;2022-09-27T00:09:22;4;3;2
73305;PMS5003;61530;51.158;0.880;2022-09-27T00:10:27;3;1;1
73305;PMS5003;61530;51.158;0.880;2022-09-27T00:11:28;4;2;1
73305;PMS5003;61530;51.158;0.880;2022-09-27T00:12:34;2;1;1
73305;PMS5003;61530;51.158;0.880;2022-09-27T00:13:39;2;2;1
73305;PMS5003;61530;51.158;0.880;2022-09-27T00:14:39;3;1;1
73305;PMS5003;61530;51.158;0.880;2022-09-27T00:15:45;3;3;1
73305;PMS5003;61530;51.158;0.880;2022-09-27T00:16:51;5;4;2
73305;PMS5003;61530;51.158;0.880;2022-09-27T00:17:51;2;2;1
73305;PMS5003;61530;51.158;0.880;2022-09-27T00:18:58;4;2;1
73305;PMS5003;61530;51.158;0.880;2022-09-27T00:20:04;2;2;1
73305;PMS5003;61530;51.158;0.880;2022-09-27T00:21:04;2;2;1
73305;PMS5003;61530;51.158;0.880;2022-09-27T00:22:09;4;1;0
73305;PMS5003;61530;51.158;0.880;2022-09-27T00:23:15;3;3;1
73305;PMS5003;61530;51.158;0.880;2022-09-27T00:24:16;2;1;1
73305;PMS5003;61530;51.158;0.880;2022-09-27T00:25:21;3;2;1
73305;PMS5003;61530;51.158;0.880;2022-09-27T00:26:27;3;2;1
73305;PMS5003;61530;51.158;0.880;2022-09-27T00:27:27;1;1;0
73305;PMS5003;61530;51.158;0.880;2022-09-27T00:28:33;2;2;1
73305;PMS5003;61530;51.158;0.880;2022-09-27T00:29:39;3;3;1
73305;PMS5003;61530;51.158;0.880;2022-09-27T00:30:40;2;2;1
73305;PMS5003;61530;51.158;0.880;2022-09-27T00:31:46;2;2;1
73305;PMS5003;61530;51.158;0.880;2022-09-27T00:32:51;2;2;1
73305;PMS5003;61530;51.158;0.880;2022-09-27T00:33:52;1;1;1
73305;PMS5003;61530;51.158;0.880;2022-09-27T00:34:57;1;1;1
73305;PMS5003;61530;51.158;0.880;2022-09-27T00:36:02;2;2;1
73305;PMS5003;61530;51.158;0.880;2022-09-27T00:37:03;2;2;1
73305;PMS5003;61530;51.158;0.880;2022-09-27T00:38:09;4;2;1
73305;PMS5003;61530;51.158;0.880;2022-09-27T00:39:15;2;2;1
73305;PMS5003;61530;51.158;0.880;2022-09-27T00:40:15;2;2;1
73305;PMS5003;61530;51.158;0.880;2022-09-27T00:41:22;3;3;1
73305;PMS5003;61530;51.158;0.880;2022-09-27T00:42:27;2;2;1
73305;PMS5003;61530;51.158;0.880;2022-09-27T00:43:40;4;2;1
73305;PMS5003;61530;51.158;0.880;2022-09-27T00:44:52;1;1;0
73305;PMS5003;61530;51.158;0.880;2022-09-27T00:45:29;3;1;1
73305;PMS5003;61530;51.158;0.880;2022-09-27T00:46:36;4;2;1
73305;PMS5003;61530;51.158;0.880;2022-09-27T00:47:42;2;1;0
73305;PMS5003;61530;51.158;0.880;2022-09-27T00:48:47;2;2;1
73305;PMS5003;61530;51.158;0.880;2022-09-27T00:49:48;4;2;0
73305;PMS5003;61530;51.158;0.880;2022-09-27T00:50:54;1;1;0
73305;PMS5003;61530;51.158;0.880;2022-09-27T00:51:54;2;2;1
73305;PMS5003;61530;51.158;0.880;2022-09-27T00:52:56;3;2;1
73305;PMS5003;61530;51.158;0.880;2022-09-27T00:53:59;1;1;0
73305;PMS5003;61530;51.158;0.880;2022-09-27T00:55:00;5;3;1
73305;PMS5003;61530;51.158;0.880;2022-09-27T00:56:08;1;1;0
73305;PMS5003;61530;51.158;0.880;2022-09-27T00:57:11;1;1;1
73305;PMS5003;61530;51.158;0.880;2022-09-27T00:58:11;1;1;0
73305;PMS5003;61530;51.158;0.880;2022-09-27T00:59:18;2;2;1
73305;PMS5003;61530;51.158;0.880;2022-09-27T01:00:23;3;2;1
73305;PMS5003;61530;51.158;0.880;2022-09-27T01:01:23;4;2;1
73305;PMS5003;61530;51.158;0.880;2022-09-27T01:02:29;4;2;0
73305;PMS5003;61530;51.158;0.880;2022-09-27T01:03:36;1;1;1
73305;PMS5003;61530;51.158;0.880;2022-09-27T01:04:35;1;1;0
73305;PMS5003;61530;51.158;0.880;2022-09-27T01:05:36;4;1;0
73305;PMS5003;61530;51.158;0.880;2022-09-27T01:06:36;2;2;1
73305;PMS5003;61530;51.158;0.880;2022-09-27T01:07:41;3;1;0
73305;PMS5003;61530;51.158;0.880;2022-09-27T01:08:41;2;2;1
73305;PMS5003;61530;51.158;0.880;2022-09-27T01:09:48;2;2;1
73305;PMS5003;61530;51.158;0.880;2022-09-27T01:10:56;3;2;1
73305;PMS5003;61530;51.158;0.880;2022-09-27T01:11:56;1;1;0
73305;PMS5003;61530;51.158;0.880;2022-09-27T01:12:56;1;1;1
73305;PMS5003;61530;51.158;0.880;2022-09-27T01:13:57;0;0;0
73305;PMS5003;61530;51.158;0.880;2022-09-27T01:15:02;2;2;1
73305;PMS5003;61530;51.158;0.880;2022-09-27T01:16:00;3;3;1
73305;PMS5003;61530;51.158;0.880;2022-09-27T01:17:01;1;1;0
73305;PMS5003;61530;51.158;0.880;2022-09-27T01:18:11;3;1;0
73305;PMS5003;61530;51.158;0.880;2022-09-27T01:19:13;4;2;0
73305;PMS5003;61530;51.158;0.880;2022-09-27T01:20:17;1;1;0
73305;PMS5003;61530;51.158;0.880;2022-09-27T01:21:19;0;0;0
73305;PMS5003;61530;51.158;0.880;2022-09-27T01:22:17;3;1;0
73305;PMS5003;61530;51.158;0.880;2022-09-27T01:23:40;4;1;0
73305;PMS5003;61530;51.158;0.880;2022-09-27T01:24:30;1;1;1
73305;PMS5003;61530;51.158;0.880;2022-09-27T01:25:30;3;2;1
73305;PMS5003;61530;51.158;0.880;2022-09-27T01:26:28;2;2;0
73305;PMS5003;61530;51.158;0.880;2022-09-27T01:29:12;7;2;0
73305;PMS5003;61530;51.158;0.880;2022-09-27T01:30:19;1;1;0
73305;PMS5003;61530;51.158;0.880;2022-09-27T01:31:18;2;1;1
73305;PMS5003;61530;51.158;0.880;2022-09-27T01:32:17;1;1;0
73305;PMS5003;61530;51.158;0.880;2022-09-27T01:33:22;3;1;1
73305;PMS5003;61530;51.158;0.880;2022-09-27T01:34:20;1;1;0
73305;PMS5003;61530;51.158;0.880;2022-09-27T01:35:19;2;2;1
73305;PMS5003;61530;51.158;0.880;2022-09-27T01:36:19;0;0;0
73305;PMS5003;61530;51.158;0.880;2022-09-27T01:37:26;3;1;0
73305;PMS5003;61530;51.158;0.880;2022-09-27T01:38:25;2;1;1
73305;PMS5003;61530;51.158;0.880;2022-09-27T01:39:32;2;2;0
73305;PMS5003;61530;51.158;0.880;2022-09-27T01:40:31;1;1;0
73305;PMS5003;61530;51.158;0.880;2022-09-27T01:41:36;3;1;1
73305;PMS5003;61530;51.158;0.880;2022-09-27T01:42:36;4;2;2
73305;PMS5003;61530;51.158;0.880;2022-09-27T01:43:42;3;3;1
73305;PMS5003;61530;51.158;0.880;2022-09-27T01:44:42;1;1;1
73305;PMS5003;61530;51.158;0.880;2022-09-27T01:45:42;2;2;2
73305;PMS5003;61530;51.158;0.880;2022-09-27T01:46:42;1;1;1
73305;PMS5003;61530;51.158;0.880;2022-09-27T01:47:48;2;2;1
73305;PMS5003;61530;51.158;0.880;2022-09-27T01:48:53;2;2;1
73305;PMS5003;61530;51.158;0.880;2022-09-27T01:49:54;2;2;0
73305;PMS5003;61530;51.158;0.880;2022-09-27T01:51:01;3;2;0
73305;PMS5003;61530;51.158;0.880;2022-09-27T01:52:00;2;2;1
73305;PMS5003;61530;51.158;0.880;2022-09-27T01:53:06;1;1;1
73305;PMS5003;61530;51.158;0.880;2022-09-27T01:54:13;3;2;1
73305;PMS5003;61530;51.158;0.880;2022-09-27T01:55:18;2;1;1
73305;PMS5003;61530;51.158;0.880;2022-09-27T01:56:25;3;1;1
73305;PMS5003;61530;51.158;0.880;2022-09-27T01:57:24;1;1;0
73305;PMS5003;61530;51.158;0.880;2022-09-27T01:58:30;2;2;1
73305;PMS5003;61530;51.158;0.880;2022-09-27T01:59:30;2;2;0
73305;PMS5003;61530;51.158;0.880;2022-09-27T02:00:35;24;23;18
73305;PMS5003;61530;51.158;0.880;2022-09-27T02:01:42;1;1;0
73305;PMS5003;61530;51.158;0.880;2022-09-27T02:02:47;3;2;0
73305;PMS5003;61530;51.158;0.880;2022-09-27T02:03:48;1;1;1
73305;PMS5003;61530;51.158;0.880;2022-09-27T02:04:54;1;1;1
73305;PMS5003;61530;51.158;0.880;2022-09-27T02:06:00;3;1;0
73305;PMS5003;61530;51.158;0.880;2022-09-27T02:07:00;1;1;0
73305;PMS5003;61530;51.158;0.880;2022-09-27T02:08:06;1;1;0
73305;PMS5003;61530;51.158;0.880;2022-09-27T02:09:12;3;2;1
73305;PMS5003;61530;51.158;0.880;2022-09-27T02:10:12;1;1;0
73305;PMS5003;61530;51.158;0.880;2022-09-27T02:11:18;1;1;1
73305;PMS5003;61530;51.158;0.880;2022-09-27T02:12:24;4;2;1
73305;PMS5003;61530;51.158;0.880;2022-09-27T02:13:24;2;1;1
73305;PMS5003;61530;51.158;0.880;2022-09-27T02:14:24;2;2;1
73305;PMS5003;61530;51.158;0.880;2022-09-27T02:15:23;1;1;1
73305;PMS5003;61530;51.158;0.880;2022-09-27T02:16:31;3;1;1
73305;PMS5003;61530;51.158;0.880;2022-09-27T02:17:30;3;2;1
73305;PMS5003;61530;51.158;0.880;2022-09-27T02:18:31;1;1;0
73305;PMS5003;61530;51.158;0.880;2022-09-27T02:19:31;1;1;1
73305;PMS5003;61530;51.158;0.880;2022-09-27T02:20:36;4;2;1
73305;PMS5003;61530;51.158;0.880;2022-09-27T02:21:37;2;2;1
73305;PMS5003;61530;51.158;0.880;2022-09-27T02:22:36;4;1;0
73305;PMS5003;61530;51.158;0.880;2022-09-27T02:23:42;2;1;1
73305;PMS5003;61530;51.158;0.880;2022-09-27T02:24:49;3;1;1
73305;PMS5003;61530;51.158;0.880;2022-09-27T02:25:54;4;1;1
73305;PMS5003;61530;51.158;0.880;2022-09-27T02:27:00;2;1;0
73305;PMS5003;61530;51.158;0.880;2022-09-27T02:28:01;4;2;1
73305;PMS5003;61530;51.158;0.880;2022-09-27T02:29:06;3;3;1
73305;PMS5003;61530;51.158;0.880;2022-09-27T02:30:12;17;17;14
73305;PMS5003;61530;51.158;0.880;2022-09-27T02:31:11;22;22;22
73305;PMS5003;61530;51.158;0.880;2022-09-27T02:32:18;3;3;3
73305;PMS5003;61530;51.158;0.880;2022-09-27T02:33:19;3;3;2
73305;PMS5003;61530;51.158;0.880;2022-09-27T02:34:19;10;10;9
73305;PMS5003;61530;51.158;0.880;2022-09-27T02:35:19;20;20;19
73305;PMS5003;61530;51.158;0.880;2022-09-27T02:36:19;23;22;21
73305;PMS5003;61530;51.158;0.880;2022-09-27T02:37:24;28;27;25
73305;PMS5003;61530;51.158;0.880;2022-09-27T02:38:31;20;19;18
73305;PMS5003;61530;51.158;0.880;2022-09-27T02:39:36;18;18;18
73305;PMS5003;61530;51.158;0.880;2022-09-27T02:40:41;18;18;17
73305;PMS5003;61530;51.158;0.880;2022-09-27T02:41:36;17;17;14
73305;PMS5003;61530;51.158;0.880;2022-09-27T02:42:42;12;12;11
73305;PMS5003;61530;51.158;0.880;2022-09-27T02:43:49;12;12;11
73305;PMS5003;61530;51.158;0.880;2022-09-27T02:44:54;10;10;10
73305;PMS5003;61530;51.158;0.880;2022-09-27T02:46:04;11;10;9
73305;PMS5003;61530;51.158;0.880;2022-09-27T02:47:05;11;10;8
73305;PMS5003;61530;51.158;0.880;2022-09-27T02:48:05;8;8;6
73305;PMS5003;61530;51.158;0.880;2022-09-27T02:49:11;7;7;7
73305;PMS5003;61530;51.158;0.880;2022-09-27T02:50:20;7;7;6
73305;PMS5003;61530;51.158;0.880;2022-09-27T02:51:25;9;9;7
73305;PMS5003;61530;51.158;0.880;2022-09-27T02:52:22;8;8;6
73305;PMS5003;61530;51.158;0.880;2022-09-27T02:53:30;9;6;5
73305;PMS5003;61530;51.158;0.880;2022-09-27T02:54:34;5;5;5
73305;PMS5003;61530;51.158;0.880;2022-09-27T02:55:40;6;6;5
73305;PMS5003;61530;51.158;0.880;2022-09-27T02:56:41;7;7;6
73305;PMS5003;61530;51.158;0.880;2022-09-27T02:57:46;7;7;5
73305;PMS5003;61530;51.158;0.880;2022-09-27T02:58:46;7;7;6
73305;PMS5003;61530;51.158;0.880;2022-09-27T02:59:52;6;6;5
73305;PMS5003;61530;51.158;0.880;2022-09-27T03:00:58;7;7;5
73305;PMS5003;61530;51.158;0.880;2022-09-27T03:01:58;9;6;5
73305;PMS5003;61530;51.158;0.880;2022-09-27T03:03:04;7;7;6
73305;PMS5003;61530;51.158;0.880;2022-09-27T03:04:04;6;6;6
73305;PMS5003;61530;51.158;0.880;2022-09-27T03:05:08;7;7;6
73305;PMS5003;61530;51.158;0.880;2022-09-27T03:06:09;6;6;6
73305;PMS5003;61530;51.158;0.880;2022-09-27T03:07:14;6;6;6
73305;PMS5003;61530;51.158;0.880;2022-09-27T03:08:20;8;8;6
73305;PMS5003;61530;51.158;0.880;2022-09-27T03:09:28;10;8;7
73305;PMS5003;61530;51.158;0.880;2022-09-27T03:10:32;8;8;8
73305;PMS5003;61530;51.158;0.880;2022-09-27T03:11:32;8;8;7
73305;PMS5003;61530;51.158;0.880;2022-09-27T03:12:32;12;10;8
73305;PMS5003;61530;51.158;0.880;2022-09-27T03:13:38;9;9;7
73305;PMS5003;61530;51.158;0.880;2022-09-27T03:14:44;9;8;7
73305;PMS5003;61530;51.158;0.880;2022-09-27T03:15:44;9;9;8
73305;PMS5003;61530;51.158;0.880;2022-09-27T03:16:50;11;11;10
73305;PMS5003;61530;51.158;0.880;2022-09-27T03:17:56;12;12;11
73305;PMS5003;61530;51.158;0.880;2022-09-27T03:18:57;8;8;3
73305;PMS5003;61530;51.158;0.880;2022-09-27T03:20:02;14;8;6
73305;PMS5003;61530;51.158;0.880;2022-09-27T03:21:08;9;9;8
73305;PMS5003;61530;51.158;0.880;2022-09-27T03:22:08;13;11;9
73305;PMS5003;61530;51.158;0.880;2022-09-27T03:23:08;14;14;12
73305;PMS5003;61530;51.158;0.880;2022-09-27T03:24:08;17;17;14
73305;PMS5003;61530;51.158;0.880;2022-09-27T03:25:14;17;15;14
73305;PMS5003;61530;51.158;0.880;2022-09-27T03:26:20;22;22;20
73305;PMS5003;61530;51.158;0.880;2022-09-27T03:27:21;24;21;20
73305;PMS5003;61530;51.158;0.880;2022-09-27T03:28:26;26;25;23
73305;PMS5003;61530;51.158;0.880;2022-09-27T03:29:32;29;28;26
73305;PMS5003;61530;51.158;0.880;2022-09-27T03:30:33;14;11;10
73305;PMS5003;61530;51.158;0.880;2022-09-27T03:31:38;21;21;20
73305;PMS5003;61530;51.158;0.880;2022-09-27T03:32:44;33;33;32
73305;PMS5003;61530;51.158;0.880;2022-09-27T03:33:44;16;14;13
73305;PMS5003;61530;51.158;0.880;2022-09-27T03:34:45;1;1;1
73305;PMS5003;61530;51.158;0.880;2022-09-27T03:35:45;2;2;2
73305;PMS5003;61530;51.158;0.880;2022-09-27T03:36:51;5;4;1
73305;PMS5003;61530;51.158;0.880;2022-09-27T03:37:51;6;4;2
73305;PMS5003;61530;51.158;0.880;2022-09-27T03:38:57;3;2;1
73305;PMS5003;61530;51.158;0.880;2022-09-27T03:40:03;5;2;1
73305;PMS5003;61530;51.158;0.880;2022-09-27T03:41:03;6;3;1
73305;PMS5003;61530;51.158;0.880;2022-09-27T03:42:09;3;3;2
73305;PMS5003;61530;51.158;0.880;2022-09-27T03:43:15;1;1;1
73305;PMS5003;61530;51.158;0.880;2022-09-27T03:44:15;3;3;1
73305;PMS5003;61530;51.158;0.880;2022-09-27T03:45:21;5;3;2
73305;PMS5003;61530;51.158;0.880;2022-09-27T03:46:27;4;2;1
73305;PMS5003;61530;51.158;0.880;2022-09-27T03:47:27;2;2;1
73305;PMS5003;61530;51.158;0.880;2022-09-27T03:48:33;4;4;2
73305;PMS5003;61530;51.158;0.880;2022-09-27T03:49:39;3;3;2
73305;PMS5003;61530;51.158;0.880;2022-09-27T03:50:39;7;3;2
73305;PMS5003;61530;51.158;0.880;2022-09-27T03:51:45;3;3;1
73305;PMS5003;61530;51.158;0.880;2022-09-27T03:52:51;2;2;1
73305;PMS5003;61530;51.158;0.880;2022-09-27T03:53:51;2;2;1
73305;PMS5003;61530;51.158;0.880;2022-09-27T03:54:57;2;2;1
73305;PMS5003;61530;51.158;0.880;2022-09-27T03:56:03;4;3;1
73305;PMS5003;61530;51.158;0.880;2022-09-27T03:57:03;3;3;1
73305;PMS5003;61530;51.158;0.880;2022-09-27T03:58:09;4;3;1
73305;PMS5003;61530;51.158;0.880;2022-09-27T03:59:15;5;2;2
73305;PMS5003;61530;51.158;0.880;2022-09-27T04:00:15;2;2;1
73305;PMS5003;61530;51.158;0.880;2022-09-27T04:01:21;2;2;2
73305;PMS5003;61530;51.158;0.880;2022-09-27T04:02:27;2;2;2
73305;PMS5003;61530;51.158;0.880;2022-09-27T04:03:27;2;2;1
73305;PMS5003;61530;51.158;0.880;2022-09-27T04:04:33;4;4;1
73305;PMS5003;61530;51.158;0.880;2022-09-27T04:05:34;3;2;1
73305;PMS5003;61530;51.158;0.880;2022-09-27T04:06:39;3;2;2
73305;PMS5003;61530;51.158;0.880;2022-09-27T04:07:46;1;1;0
73305;PMS5003;61530;51.158;0.880;2022-09-27T04:08:51;4;3;1
73305;PMS5003;61530;51.158;0.880;2022-09-27T04:09:51;2;2;2
73305;PMS5003;61530;51.158;0.880;2022-09-27T04:10:57;3;2;1
73305;PMS5003;61530;51.158;0.880;2022-09-27T04:12:03;5;3;2
73305;PMS5003;61530;51.158;0.880;2022-09-27T04:13:03;5;4;2
73305;PMS5003;61530;51.158;0.880;2022-09-27T04:14:09;5;5;3
73305;PMS5003;61530;51.158;0.880;2022-09-27T04:15:15;5;4;2
73305;PMS5003;61530;51.158;0.880;2022-09-27T04:16:15;4;4;3
73305;PMS5003;61530;51.158;0.880;2022-09-27T04:17:21;5;5;4
73305;PMS5003;61530;51.158;0.880;2022-09-27T04:18:27;5;4;4
73305;PMS5003;61530;51.158;0.880;2022-09-27T04:19:27;4;4;4
73305;PMS5003;61530;51.158;0.880;2022-09-27T04:20:34;4;4;4
73305;PMS5003;61530;51.158;0.880;2022-09-27T04:21:39;5;5;4
73305;PMS5003;61530;51.158;0.880;2022-09-27T04:22:39;7;4;4
73305;PMS5003;61530;51.158;0.880;2022-09-27T04:23:45;8;5;4
73305;PMS5003;61530;51.158;0.880;2022-09-27T04:24:51;5;5;4
73305;PMS5003;61530;51.158;0.880;2022-09-27T04:25:51;6;6;4
73305;PMS5003;61530;51.158;0.880;2022-09-27T04:26:57;4;4;4
73305;PMS5003;61530;51.158;0.880;2022-09-27T04:28:03;6;6;5
73305;PMS5003;61530;51.158;0.880;2022-09-27T04:29:03;5;5;5
73305;PMS5003;61530;51.158;0.880;2022-09-27T04:30:10;7;7;6
73305;PMS5003;61530;51.158;0.880;2022-09-27T04:31:15;7;7;6
73305;PMS5003;61530;51.158;0.880;2022-09-27T04:32:15;10;8;6
73305;PMS5003;61530;51.158;0.880;2022-09-27T04:33:21;8;8;7
73305;PMS5003;61530;51.158;0.880;2022-09-27T04:34:27;10;10;8
73305;PMS5003;61530;51.158;0.880;2022-09-27T04:35:27;10;10;9
73305;PMS5003;61530;51.158;0.880;2022-09-27T04:36:33;11;8;7
73305;PMS5003;61530;51.158;0.880;2022-09-27T04:37:33;11;11;10
73305;PMS5003;61530;51.158;0.880;2022-09-27T04:38:35;11;11;10
73305;PMS5003;61530;51.158;0.880;2022-09-27T04:39:41;11;11;11
73305;PMS5003;61530;51.158;0.880;2022-09-27T04:40:47;15;14;12
73305;PMS5003;61530;51.158;0.880;2022-09-27T04:41:53;6;6;2
73305;PMS5003;61530;51.158;0.880;2022-09-27T04:42:59;10;9;7
73305;PMS5003;61530;51.158;0.880;2022-09-27T04:43:59;14;14;11
73305;PMS5003;61530;51.158;0.880;2022-09-27T04:45:05;12;12;12
73305;PMS5003;61530;51.158;0.880;2022-09-27T04:46:11;17;17;16
73305;PMS5003;61530;51.158;0.880;2022-09-27T04:47:11;21;19;18
73305;PMS5003;61530;51.158;0.880;2022-09-27T04:48:17;18;18;18
73305;PMS5003;61530;51.158;0.880;2022-09-27T04:49:23;21;21;20
73305;PMS5003;61530;51.158;0.880;2022-09-27T04:50:23;25;23;23
73305;PMS5003;61530;51.158;0.880;2022-09-27T04:51:29;26;26;25
73305;PMS5003;61530;51.158;0.880;2022-09-27T04:52:35;28;24;24
73305;PMS5003;61530;51.158;0.880;2022-09-27T04:53:35;18;18;16
73305;PMS5003;61530;51.158;0.880;2022-09-27T04:54:41;10;10;9
73305;PMS5003;61530;51.158;0.880;2022-09-27T04:55:48;8;6;5
73305;PMS5003;61530;51.158;0.880;2022-09-27T04:56:47;5;5;4
73305;PMS5003;61530;51.158;0.880;2022-09-27T04:57:53;6;4;3
73305;PMS5003;61530;51.158;0.880;2022-09-27T04:58:59;5;5;3
73305;PMS5003;61530;51.158;0.880;2022-09-27T04:59:59;5;3;2
73305;PMS5003;61530;51.158;0.880;2022-09-27T05:01:05;4;4;3
73305;PMS5003;61530;51.158;0.880;2022-09-27T05:02:11;4;3;3
73305;PMS5003;61530;51.158;0.880;2022-09-27T05:03:11;4;3;2
73305;PMS5003;61530;51.158;0.880;2022-09-27T05:04:17;3;3;2
73305;PMS5003;61530;51.158;0.880;2022-09-27T05:05:23;5;4;2
73305;PMS5003;61530;51.158;0.880;2022-09-27T05:06:23;4;4;2
73305;PMS5003;61530;51.158;0.880;2022-09-27T05:07:29;5;4;3
73305;PMS5003;61530;51.158;0.880;2022-09-27T05:08:35;6;5;3
73305;PMS5003;61530;51.158;0.880;2022-09-27T05:09:35;3;3;2
73305;PMS5003;61530;51.158;0.880;2022-09-27T05:10:41;3;3;2
73305;PMS5003;61530;51.158;0.880;2022-09-27T05:11:47;5;4;3
73305;PMS5003;61530;51.158;0.880;2022-09-27T05:12:47;6;4;2
73305;PMS5003;61530;51.158;0.880;2022-09-27T05:13:53;3;2;1
73305;PMS5003;61530;51.158;0.880;2022-09-27T05:14:59;3;3;1
73305;PMS5003;61530;51.158;0.880;2022-09-27T05:16:01;2;2;2
73305;PMS5003;61530;51.158;0.880;2022-09-27T05:17:05;2;2;1
73305;PMS5003;61530;51.158;0.880;2022-09-27T05:18:11;3;3;1
73305;PMS5003;61530;51.158;0.880;2022-09-27T05:19:11;2;1;1
73305;PMS5003;61530;51.158;0.880;2022-09-27T05:20:17;2;2;1
73305;PMS5003;61530;51.158;0.880;2022-09-27T05:21:23;1;1;1
73305;PMS5003;61530;51.158;0.880;2022-09-27T05:22:23;2;2;1
73305;PMS5003;61530;51.158;0.880;2022-09-27T05:23:29;3;2;1
73305;PMS5003;61530;51.158;0.880;2022-09-27T05:24:35;1;1;1
73305;PMS5003;61530;51.158;0.880;2022-09-27T05:25:35;2;2;1
73305;PMS5003;61530;51.158;0.880;2022-09-27T05:26:41;2;2;1
73305;PMS5003;61530;51.158;0.880;2022-09-27T05:27:48;2;2;0
73305;PMS5003;61530;51.158;0.880;2022-09-27T05:28:47;3;3;1
73305;PMS5003;61530;51.158;0.880;2022-09-27T05:29:53;1;1;1
73305;PMS5003;61530;51.158;0.880;2022-09-27T05:30:59;3;3;1
73305;PMS5003;61530;51.158;0.880;2022-09-27T05:31:59;2;2;0
73305;PMS5003;61530;51.158;0.880;2022-09-27T05:33:05;3;3;1
73305;PMS5003;61530;51.158;0.880;2022-09-27T05:34:11;2;2;1
73305;PMS5003;61530;51.158;0.880;2022-09-27T05:35:11;3;3;2
73305;PMS5003;61530;51.158;0.880;2022-09-27T05:36:17;6;3;1
73305;PMS5003;61530;51.158;0.880;2022-09-27T05:37:23;2;2;1
73305;PMS5003;61530;51.158;0.880;2022-09-27T05:38:23;5;3;1
73305;PMS5003;61530;51.158;0.880;2022-09-27T05:39:29;1;1;0
73305;PMS5003;61530;51.158;0.880;2022-09-27T05:40:35;2;1;0
73305;PMS5003;61530;51.158;0.880;2022-09-27T05:41:35;1;1;1
73305;PMS5003;61530;51.158;0.880;2022-09-27T05:42:41;4;3;2
73305;PMS5003;61530;51.158;0.880;2022-09-27T05:43:47;3;1;1
73305;PMS5003;61530;51.158;0.880;2022-09-27T05:44:47;4;2;1
73305;PMS5003;61530;51.158;0.880;2022-09-27T05:45:53;5;0;0
73305;PMS5003;61530;51.158;0.880;2022-09-27T05:46:59;4;4;1
73305;PMS5003;61530;51.158;0.880;2022-09-27T05:47:59;2;1;1
73305;PMS5003;61530;51.158;0.880;2022-09-27T05:49:05;3;3;1
73305;PMS5003;61530;51.158;0.880;2022-09-27T05:50:11;3;2;0
73305;PMS5003;61530;51.158;0.880;2022-09-27T05:51:11;3;2;0
73305;PMS5003;61530;51.158;0.880;2022-09-27T05:52:17;2;2;0
73305;PMS5003;61530;51.158;0.880;2022-09-27T05:53:23;3;1;0
73305;PMS5003;61530;51.158;0.880;2022-09-27T05:54:23;4;2;0
73305;PMS5003;61530;51.158;0.880;2022-09-27T05:55:29;3;2;0
73305;PMS5003;61530;51.158;0.880;2022-09-27T05:56:35;1;1;0
73305;PMS5003;61530;51.158;0.880;2022-09-27T05:57:35;3;1;0
73305;PMS5003;61530;51.158;0.880;2022-09-27T05:58:41;3;2;1
73305;PMS5003;61530;51.158;0.880;2022-09-27T05:59:47;5;2;0
73305;PMS5003;61530;51.158;0.880;2022-09-27T06:00:47;4;2;1
73305;PMS5003;61530;51.158;0.880;2022-09-27T06:01:53;2;2;0
73305;PMS5003;61530;51.158;0.880;2022-09-27T06:02:55;2;1;1
73305;PMS5003;61530;51.158;0.880;2022-09-27T06:03:57;2;0;0
73305;PMS5003;61530;51.158;0.880;2022-09-27T06:05:04;2;2;0
73305;PMS5003;61530;51.158;0.880;2022-09-27T06:06:09;2;1;1
73305;PMS5003;61530;51.158;0.880;2022-09-27T06:07:15;3;2;1
73305;PMS5003;61530;51.158;0.880;2022-09-27T06:08:15;6;1;1
73305;PMS5003;61530;51.158;0.880;2022-09-27T06:09:21;1;1;0
73305;PMS5003;61530;51.158;0.880;2022-09-27T06:10:23;2;2;1
73305;PMS5003;61530;51.158;0.880;2022-09-27T06:11:29;2;2;1
73305;PMS5003;61530;51.158;0.880;2022-09-27T06:12:35;3;2;0
73305;PMS5003;61530;51.158;0.880;2022-09-27T06:13:35;3;2;1
73305;PMS5003;61530;51.158;0.880;2022-09-27T06:14:41;2;2;0
73305;PMS5003;61530;51.158;0.880;2022-09-27T06:15:47;3;3;1
73305;PMS5003;61530;51.158;0.880;2022-09-27T06:16:47;1;1;0
73305;PMS5003;61530;51.158;0.880;2022-09-27T06:17:49;3;3;2
73305;PMS5003;61530;51.158;0.880;2022-09-27T06:18:55;3;1;0
73305;PMS5003;61530;51.158;0.880;2022-09-27T06:19:55;5;1;0
73305;PMS5003;61530;51.158;0.880;2022-09-27T06:21:02;2;2;1
73305;PMS5003;61530;51.158;0.880;2022-09-27T06:22:07;11;11;4
73305;PMS5003;61530;51.158;0.880;2022-09-27T06:23:08;3;1;0
73305;PMS5003;61530;51.158;0.880;2022-09-27T06:24:13;3;2;2
73305;PMS5003;61530;51.158;0.880;2022-09-27T06:25:19;3;2;1
73305;PMS5003;61530;51.158;0.880;2022-09-27T06:26:19;3;1;0
73305;PMS5003;61530;51.158;0.880;2022-09-27T06:27:25;2;2;1
73305;PMS5003;61530;51.158;0.880;2022-09-27T06:28:31;3;2;0
73305;PMS5003;61530;51.158;0.880;2022-09-27T06:29:31;3;1;0
73305;PMS5003;61530;51.158;0.880;2022-09-27T06:30:37;2;2;1
73305;PMS5003;61530;51.158;0.880;2022-09-27T06:31:43;4;4;0
73305;PMS5003;61530;51.158;0.880;2022-09-27T06:32:43;3;1;1
73305;PMS5003;61530;51.158;0.880;2022-09-27T06:33:49;2;2;0
73305;PMS5003;61530;51.158;0.880;2022-09-27T06:34:49;1;1;1
73305;PMS5003;61530;51.158;0.880;2022-09-27T06:35:55;4;3;0
73305;PMS5003;61530;51.158;0.880;2022-09-27T06:37:01;2;2;0
73305;PMS5003;61530;51.158;0.880;2022-09-27T06:38:09;2;2;1
73305;PMS5003;61530;51.158;0.880;2022-09-27T06:39:07;5;5;1
73305;PMS5003;61530;51.158;0.880;2022-09-27T06:40:13;1;1;1
73305;PMS5003;61530;51.158;0.880;2022-09-27T06:41:19;2;2;1
73305;PMS5003;61530;51.158;0.880;2022-09-27T06:42:19;3;3;1
73305;PMS5003;61530;51.158;0.880;2022-09-27T06:43:25;2;2;0
73305;PMS5003;61530;51.158;0.880;2022-09-27T06:44:31;2;1;1
73305;PMS5003;61530;51.158;0.880;2022-09-27T06:45:31;3;2;1
73305;PMS5003;61530;51.158;0.880;2022-09-27T06:46:37;3;1;0
73305;PMS5003;61530;51.158;0.880;2022-09-27T06:47:43;2;2;1
73305;PMS5003;61530;51.158;0.880;2022-09-27T06:48:43;3;2;0
73305;PMS5003;61530;51.158;0.880;2022-09-27T06:49:49;4;2;1
73305;PMS5003;61530;51.158;0.880;2022-09-27T06:50:55;1;1;0
73305;PMS5003;61530;51.158;0.880;2022-09-27T06:51:55;4;3;0
73305;PMS5003;61530;51.158;0.880;2022-09-27T06:53:03;4;2;0
73305;PMS5003;61530;51.158;0.880;2022-09-27T06:54:07;1;1;1
73305;PMS5003;61530;51.158;0.880;2022-09-27T06:55:08;2;2;1
73305;PMS5003;61530;51.158;0.880;2022-09-27T06:56:13;2;2;1
73305;PMS5003;61530;51.158;0.880;2022-09-27T06:57:19;3;2;1
73305;PMS5003;61530;51.158;0.880;2022-09-27T06:58:19;2;2;1
73305;PMS5003;61530;51.158;0.880;2022-09-27T06:59:25;2;2;1
73305;PMS5003;61530;51.158;0.880;2022-09-27T07:00:31;4;3;1
73305;PMS5003;61530;51.158;0.880;2022-09-27T07:01:31;2;2;1
73305;PMS5003;61530;51.158;0.880;2022-09-27T07:02:37;5;2;1
73305;PMS5003;61530;51.158;0.880;2022-09-27T07:03:47;5;3;1
73305;PMS5003;61530;51.158;0.880;2022-09-27T07:04:43;4;4;3
73305;PMS5003;61530;51.158;0.880;2022-09-27T07:05:57;28;25;23
73305;PMS5003;61530;51.158;0.880;2022-09-27T07:06:50;40;40;39
73305;PMS5003;61530;51.158;0.880;2022-09-27T07:07:55;17;15;15